createdAt,value
2018-09-18T00:01:27.751Z,100678.40
2018-09-18T00:03:56.262Z,100670.34
2018-09-18T00:06:24.825Z,100676.80
2018-09-18T00:08:53.325Z,100669.01
2018-09-18T00:11:21.818Z,100669.91
2018-09-18T00:13:50.310Z,100674.41
2018-09-18T00:16:18.821Z,100665.53
2018-09-18T00:18:47.483Z,100667.41
2018-09-18T00:21:15.957Z,100666.30
2018-09-18T00:23:44.476Z,100660.15
2018-09-18T00:26:12.975Z,100661.55
2018-09-18T00:28:41.521Z,100663.54
2018-09-18T00:31:10.803Z,100660.24
2018-09-18T00:33:39.303Z,100658.75
2018-09-18T00:36:07.854Z,100657.91
2018-09-18T00:38:36.320Z,100651.89
2018-09-18T00:41:04.799Z,100648.22
2018-09-18T00:43:33.274Z,100644.23
2018-09-18T00:46:01.770Z,100642.64
2018-09-18T00:48:30.293Z,100638.58
2018-09-18T00:50:58.835Z,100641.25
2018-09-18T00:53:33.867Z,100636.53
2018-09-18T00:56:02.399Z,100631.94
2018-09-18T00:58:30.885Z,100628.98
2018-09-18T01:00:59.391Z,100630.66
2018-09-18T01:03:27.862Z,100626.94
2018-09-18T01:05:56.429Z,100631.25
2018-09-18T01:08:24.915Z,100626.66
2018-09-18T01:10:53.425Z,100624.25
2018-09-18T01:13:21.965Z,100617.53
2018-09-18T01:15:50.517Z,100624.84
2018-09-18T01:18:18.986Z,100619.52
2018-09-18T01:20:47.513Z,100618.28
2018-09-18T01:23:16.024Z,100615.02
2018-09-18T01:25:44.833Z,100610.73
2018-09-18T01:28:13.321Z,100607.85
2018-09-18T01:30:41.781Z,100613.75
2018-09-18T01:33:10.293Z,100611.47
2018-09-18T01:35:38.794Z,100608.52
2018-09-18T01:38:07.347Z,100604.00
2018-09-18T01:40:35.847Z,100603.22
2018-09-18T01:43:04.352Z,100606.80
2018-09-18T01:45:33.119Z,100599.41
2018-09-18T01:48:01.597Z,100596.25
2018-09-18T01:50:30.092Z,100594.77
2018-09-18T01:52:58.606Z,100599.08
2018-09-18T01:55:27.214Z,100593.97
2018-09-18T01:57:55.715Z,100595.81
2018-09-18T02:00:24.264Z,100594.86
2018-09-18T02:02:52.805Z,100595.32
2018-09-18T02:05:21.578Z,100588.83
2018-09-18T02:07:50.095Z,100589.92
2018-09-18T02:10:18.579Z,100585.27
2018-09-18T02:12:47.084Z,100581.94
2018-09-18T02:15:15.615Z,100582.01
2018-09-18T02:17:44.118Z,100581.88
2018-09-18T02:20:12.638Z,100579.79
2018-09-18T02:22:41.207Z,100586.70
2018-09-18T02:25:09.700Z,100582.87
2018-09-18T02:27:38.202Z,100579.67
2018-09-18T02:30:06.728Z,100574.41
2018-09-18T02:32:35.245Z,100576.47
2018-09-18T02:35:03.872Z,100574.95
2018-09-18T02:37:32.462Z,100573.80
2018-09-18T02:40:01.061Z,100569.70
2018-09-18T02:42:29.682Z,100567.78
2018-09-18T02:44:58.187Z,100560.09
2018-09-18T02:47:26.704Z,100564.16
2018-09-18T02:49:55.349Z,100558.44
2018-09-18T02:52:23.837Z,100555.69
2018-09-18T02:54:52.363Z,100557.11
2018-09-18T02:57:20.868Z,100549.86
2018-09-18T02:59:49.385Z,100555.54
2018-09-18T03:02:17.894Z,100545.87
2018-09-18T03:04:46.393Z,100546.36
2018-09-18T03:07:14.938Z,100547.75
2018-09-18T03:09:43.519Z,100543.38
2018-09-18T03:12:12.051Z,100544.14
2018-09-18T03:14:40.550Z,100541.98
2018-09-18T03:17:09.083Z,100535.02
2018-09-18T03:19:37.610Z,100532.86
2018-09-18T03:22:06.088Z,100533.84
2018-09-18T03:24:34.569Z,100527.83
2018-09-18T03:27:03.052Z,100532.10
2018-09-18T03:29:31.530Z,100526.19
2018-09-18T03:32:00.039Z,100523.11
2018-09-18T03:34:28.586Z,100517.60
2018-09-18T03:37:03.610Z,100518.64
2018-09-18T03:39:32.112Z,100513.77
2018-09-18T03:42:01.374Z,100505.03
2018-09-18T03:44:30.742Z,100507.04
2018-09-18T03:46:59.299Z,100490.36
2018-09-18T03:49:27.978Z,100493.17
2018-09-18T03:51:56.522Z,100492.95
2018-09-18T03:54:24.997Z,100485.64
2018-09-18T03:56:53.509Z,100489.02
2018-09-18T03:59:21.993Z,100481.88
2018-09-18T04:01:50.533Z,100480.72
2018-09-18T04:04:19.013Z,100478.94
2018-09-18T04:06:47.502Z,100479.80
2018-09-18T04:09:15.979Z,100477.42
2018-09-18T04:11:44.502Z,100475.61
2018-09-18T04:14:13.006Z,100478.00
2018-09-18T04:16:41.546Z,100467.69
2018-09-18T04:19:10.013Z,100472.79
2018-09-18T04:21:41.311Z,100472.99
2018-09-18T04:24:09.825Z,100467.61
2018-09-18T04:26:39.639Z,100468.33
2018-09-18T04:29:09.006Z,100468.16
2018-09-18T04:31:39.393Z,100456.72
2018-09-18T04:34:07.940Z,100454.37
2018-09-18T04:36:36.537Z,100454.72
2018-09-18T04:39:08.378Z,100456.77
2018-09-18T04:41:36.850Z,100449.28
2018-09-18T04:44:05.350Z,100456.77
2018-09-18T04:46:33.901Z,100442.71
2018-09-18T04:49:02.416Z,100450.95
2018-09-18T04:51:31.042Z,100449.55
2018-09-18T04:53:59.663Z,100451.16
2018-09-18T04:56:28.585Z,100449.95
2018-09-18T04:58:57.054Z,100446.58
2018-09-18T05:01:26.658Z,100455.55
2018-09-18T05:03:55.349Z,100450.85
2018-09-18T05:06:23.902Z,100449.16
2018-09-18T05:08:52.383Z,100456.02
2018-09-18T05:11:21.429Z,100455.62
2018-09-18T05:13:50.029Z,100447.44
2018-09-18T05:16:18.574Z,100446.97
2018-09-18T05:18:47.143Z,100444.98
2018-09-18T05:21:15.764Z,100446.36
2018-09-18T05:23:44.411Z,100447.66
2018-09-18T05:26:13.030Z,100445.75
2018-09-18T05:28:41.585Z,100444.75
2018-09-18T05:31:10.815Z,100446.02
2018-09-18T05:33:39.511Z,100451.41
2018-09-18T05:36:08.090Z,100447.02
2018-09-18T05:38:36.706Z,100447.81
2018-09-18T05:41:05.442Z,100450.70
2018-09-18T05:43:34.374Z,100445.97
2018-09-18T05:46:02.941Z,100446.55
2018-09-18T05:48:33.721Z,100443.94
2018-09-18T05:51:02.328Z,100437.78
2018-09-18T05:53:30.908Z,100443.63
2018-09-18T05:55:59.624Z,100442.37
2018-09-18T05:58:28.589Z,100442.28
2018-09-18T06:03:24.623Z,100442.92
2018-09-18T06:05:53.174Z,100431.39
2018-09-18T06:08:21.720Z,100437.06
2018-09-18T06:10:50.279Z,100436.71
2018-09-18T06:13:18.858Z,100438.45
2018-09-18T06:15:47.415Z,100442.80
2018-09-18T06:18:15.963Z,100438.73
2018-09-18T06:20:44.717Z,100433.28
2018-09-18T06:23:13.277Z,100428.11
2018-09-18T06:25:41.786Z,100434.30
2018-09-18T06:28:10.347Z,100423.98
2018-09-18T06:30:38.963Z,100429.69
2018-09-18T06:33:07.496Z,100427.61
2018-09-18T06:35:36.034Z,100429.65
2018-09-18T06:38:04.588Z,100430.69
2018-09-18T06:40:33.085Z,100425.56
2018-09-18T06:43:01.618Z,100427.45
2018-09-18T06:45:30.166Z,100426.83
2018-09-18T06:47:58.742Z,100433.91
2018-09-18T06:50:27.217Z,100432.39
2018-09-18T06:52:55.751Z,100431.49
2018-09-18T06:55:24.303Z,100429.63
2018-09-18T06:57:52.915Z,100430.03
2018-09-18T07:00:21.462Z,100430.98
2018-09-18T07:02:49.972Z,100428.04
2018-09-18T07:05:18.539Z,100421.53
2018-09-18T07:07:47.066Z,100421.06
2018-09-18T07:10:15.558Z,100422.94
2018-09-18T07:12:44.066Z,100417.81
2018-09-18T07:15:12.614Z,100416.37
2018-09-18T07:17:41.191Z,100416.47
2018-09-18T07:20:09.792Z,100417.66
2018-09-18T07:22:38.422Z,100417.75
2018-09-18T07:25:07.021Z,100414.64
2018-09-18T07:27:35.727Z,100413.67
2018-09-18T07:30:04.832Z,100411.11
2018-09-18T07:32:33.314Z,100410.39
2018-09-18T07:35:01.860Z,100414.29
2018-09-18T07:37:30.382Z,100416.22
2018-09-18T07:39:58.874Z,100414.14
2018-09-18T07:42:27.440Z,100418.73
2018-09-18T07:44:56.945Z,100409.38
2018-09-18T07:47:25.527Z,100412.95
2018-09-18T07:49:54.117Z,100415.16
2018-09-18T07:52:22.801Z,100405.54
2018-09-18T07:54:51.271Z,100413.66
2018-09-18T07:57:19.803Z,100401.85
2018-09-18T07:59:48.378Z,100404.83
2018-09-18T08:02:16.857Z,100400.56
2018-09-18T08:04:45.427Z,100400.83
2018-09-18T08:07:13.994Z,100403.52
2018-09-18T08:09:42.528Z,100394.69
2018-09-18T08:12:11.159Z,100392.28
2018-09-18T08:14:39.615Z,100390.66
2018-09-18T08:17:08.143Z,100390.38
2018-09-18T08:19:36.868Z,100384.70
2018-09-18T08:22:05.332Z,100389.26
2018-09-18T08:24:33.870Z,100388.72
2018-09-18T08:27:02.366Z,100386.55
2018-09-18T08:29:31.124Z,100391.34
2018-09-18T08:31:59.663Z,100394.80
2018-09-18T08:34:28.207Z,100396.94
2018-09-18T08:36:56.977Z,100397.73
2018-09-18T08:39:25.601Z,100397.16
2018-09-18T08:41:54.150Z,100396.31
2018-09-18T08:44:22.676Z,100398.20
2018-09-18T08:46:51.288Z,100400.52
2018-09-18T08:49:19.856Z,100402.38
2018-09-18T08:51:48.400Z,100403.16
2018-09-18T08:54:16.931Z,100405.53
2018-09-18T08:56:45.501Z,100407.66
2018-09-18T08:59:14.100Z,100401.88
2018-09-18T09:01:42.653Z,100402.97
2018-09-18T09:04:11.267Z,100399.17
2018-09-18T09:06:39.855Z,100398.39
2018-09-18T09:09:11.351Z,100394.58
2018-09-18T09:11:39.875Z,100389.86
2018-09-18T09:14:08.699Z,100393.81
2018-09-18T09:16:37.247Z,100392.23
2018-09-18T09:19:05.877Z,100391.74
2018-09-18T09:21:34.499Z,100397.67
2018-09-18T09:24:03.065Z,100396.80
2018-09-18T09:26:31.613Z,100388.84
2018-09-18T09:29:00.214Z,100393.14
2018-09-18T09:31:28.778Z,100398.48
2018-09-18T09:33:57.310Z,100404.56
2018-09-18T09:36:25.949Z,100405.91
2018-09-18T09:38:54.660Z,100408.50
2018-09-18T09:41:23.031Z,100397.30
2018-09-18T09:43:51.637Z,100399.24
2018-09-18T09:46:20.131Z,100400.59
2018-09-18T09:48:48.638Z,100402.13
2018-09-18T09:51:17.279Z,100404.39
2018-09-18T09:53:46.920Z,100400.11
2018-09-18T09:56:15.441Z,100401.30
2018-09-18T09:58:43.954Z,100389.25
2018-09-18T10:01:17.838Z,100391.17
2018-09-18T10:03:46.369Z,100384.58
2018-09-18T10:06:14.941Z,100386.17
2018-09-18T10:08:44.155Z,100381.36
2018-09-18T10:11:12.723Z,100387.81
2018-09-18T10:13:41.240Z,100385.27
2018-09-18T10:16:09.812Z,100384.39
2018-09-18T10:18:38.366Z,100381.97
2018-09-18T10:21:06.944Z,100384.48
2018-09-18T10:23:35.462Z,100384.17
2018-09-18T10:26:04.184Z,100386.91
2018-09-18T10:28:32.655Z,100387.89
2018-09-18T10:31:01.245Z,100382.55
2018-09-18T10:33:29.757Z,100376.45
2018-09-18T10:35:58.327Z,100373.38
2018-09-18T10:38:26.827Z,100378.02
2018-09-18T10:40:55.486Z,100378.89
2018-09-18T10:43:24.950Z,100387.20
2018-09-18T10:45:53.510Z,100388.08
2018-09-18T10:48:22.027Z,100379.89
2018-09-18T10:50:51.370Z,100377.70
2018-09-18T10:53:20.025Z,100378.99
2018-09-18T10:55:48.561Z,100384.17
2018-09-18T10:58:17.080Z,100380.23
2018-09-18T11:00:46.314Z,100382.91
2018-09-18T11:03:15.261Z,100370.83
2018-09-18T11:05:44.818Z,100385.61
2018-09-18T11:08:15.803Z,100385.39
2018-09-18T11:10:44.418Z,100383.61
2018-09-18T11:13:13.895Z,100381.23
2018-09-18T11:15:43.627Z,100380.69
2018-09-18T11:18:13.104Z,100381.95
2018-09-18T11:20:42.369Z,100379.86
2018-09-18T11:23:11.794Z,100380.20
2018-09-18T11:25:40.608Z,100374.16
2018-09-18T11:28:12.383Z,100375.52
2018-09-18T11:30:42.416Z,100371.89
2018-09-18T11:33:12.346Z,100374.30
2018-09-18T11:35:40.878Z,100367.27
2018-09-18T11:38:09.626Z,100367.16
2018-09-18T11:40:38.200Z,100372.08
2018-09-18T11:43:06.790Z,100366.42
2018-09-18T11:45:36.094Z,100372.52
2018-09-18T11:48:04.596Z,100369.06
2018-09-18T11:50:33.146Z,100372.94
2018-09-18T11:53:01.926Z,100374.56
2018-09-18T11:55:30.450Z,100365.90
2018-09-18T11:57:59.533Z,100364.94
2018-09-18T12:00:28.217Z,100353.68
2018-09-18T12:02:56.863Z,100362.39
2018-09-18T12:05:25.346Z,100357.84
2018-09-18T12:07:53.910Z,100352.42
2018-09-18T12:10:23.086Z,100350.58
2018-09-18T12:12:51.607Z,100357.28
2018-09-18T12:15:20.159Z,100356.70
2018-09-18T12:17:49.452Z,100354.88
2018-09-18T12:20:18.307Z,100359.89
2018-09-18T12:22:46.898Z,100359.20
2018-09-18T12:25:15.412Z,100349.16
2018-09-18T12:27:44.058Z,100350.77
2018-09-18T12:30:12.527Z,100339.02
2018-09-18T12:32:41.081Z,100361.05
2018-09-18T12:35:09.593Z,100349.41
2018-09-18T12:37:38.127Z,100352.62
2018-09-18T12:40:06.735Z,100349.83
2018-09-18T12:42:35.372Z,100352.62
2018-09-18T12:45:03.888Z,100344.27
2018-09-18T12:47:32.386Z,100352.42
2018-09-18T12:50:01.067Z,100355.64
2018-09-18T12:52:29.445Z,100353.77
2018-09-18T12:54:58.178Z,100353.78
2018-09-18T12:57:26.854Z,100361.67
2018-09-18T12:59:55.259Z,100358.39
2018-09-18T13:02:23.909Z,100363.66
2018-09-18T13:04:52.371Z,100352.79
2018-09-18T13:07:20.931Z,100366.14
2018-09-18T13:09:49.509Z,100361.75
2018-09-18T13:12:17.989Z,100364.79
2018-09-18T13:14:46.599Z,100366.64
2018-09-18T13:17:15.237Z,100354.20
2018-09-18T13:19:44.629Z,100362.00
2018-09-18T13:22:13.126Z,100355.21
2018-09-18T13:24:41.626Z,100357.73
2018-09-18T13:27:10.186Z,100361.48
2018-09-18T13:29:38.733Z,100356.36
2018-09-18T13:32:07.507Z,100350.57
2018-09-18T13:34:36.071Z,100358.70
2018-09-18T13:37:04.711Z,100348.70
2018-09-18T13:39:33.376Z,100359.94
2018-09-18T13:42:02.261Z,100351.79
2018-09-18T13:44:31.066Z,100355.02
2018-09-18T13:46:59.550Z,100352.05
2018-09-18T13:49:28.662Z,100358.97
2018-09-18T13:51:57.272Z,100367.32
2018-09-18T13:54:25.874Z,100365.33
2018-09-18T13:56:54.427Z,100373.65
2018-09-18T13:59:23.025Z,100371.24
2018-09-18T14:01:51.646Z,100364.14
2018-09-18T14:04:20.161Z,100358.27
2018-09-18T14:06:48.696Z,100355.14
2018-09-18T14:09:17.296Z,100366.14
2018-09-18T14:11:45.806Z,100369.64
2018-09-18T14:14:14.322Z,100368.46
2018-09-18T14:16:42.853Z,100378.30
2018-09-18T14:19:11.403Z,100365.63
2018-09-18T14:21:39.993Z,100368.30
2018-09-18T14:24:08.546Z,100366.13
2018-09-18T14:26:37.209Z,100357.97
2018-09-18T14:29:05.649Z,100376.25
2018-09-18T14:31:34.217Z,100372.11
2018-09-18T14:34:02.807Z,100369.83
2018-09-18T14:36:31.335Z,100385.30
2018-09-18T14:39:00.085Z,100388.38
2018-09-18T14:41:28.573Z,100389.30
2018-09-18T14:43:57.122Z,100398.30
2018-09-18T14:46:25.651Z,100397.69
2018-09-18T14:48:54.306Z,100387.83
2018-09-18T14:51:22.998Z,100393.77
2018-09-18T14:53:51.751Z,100397.06
2018-09-18T14:56:20.323Z,100395.01
2018-09-18T14:58:48.963Z,100398.34
2018-09-18T15:01:17.615Z,100397.53
2018-09-18T15:03:46.220Z,100402.41
2018-09-18T15:06:14.748Z,100412.30
2018-09-18T15:08:43.266Z,100392.80
2018-09-18T15:11:11.851Z,100411.09
2018-09-18T15:13:40.355Z,100406.14
2018-09-18T15:16:08.867Z,100403.44
2018-09-18T15:18:37.454Z,100406.73
2018-09-18T15:21:06.000Z,100410.45
2018-09-18T15:23:34.491Z,100418.05
2018-09-18T15:26:02.997Z,100420.56
2018-09-18T15:28:31.510Z,100417.18
2018-09-18T15:31:00.041Z,100418.64
2018-09-18T15:33:28.696Z,100421.42
2018-09-18T15:35:57.202Z,100429.15
2018-09-18T15:38:25.718Z,100429.08
2018-09-18T15:40:54.293Z,100439.48
2018-09-18T15:43:22.834Z,100437.98
2018-09-18T15:48:24.805Z,100439.64
2018-09-18T15:50:53.269Z,100443.22
2018-09-18T15:53:21.839Z,100435.00
2018-09-18T15:55:51.415Z,100437.04
2018-09-18T15:58:20.695Z,100442.76
2018-09-18T16:00:49.465Z,100446.69
2018-09-18T16:03:17.994Z,100441.36
2018-09-18T16:05:46.621Z,100452.22
2018-09-18T16:08:15.140Z,100453.56
2018-09-18T16:10:44.323Z,100466.83
2018-09-18T16:13:13.155Z,100460.20
2018-09-18T16:15:42.478Z,100459.27
2018-09-18T16:18:11.083Z,100467.78
2018-09-18T16:20:39.606Z,100470.85
2018-09-18T16:23:08.862Z,100478.16
2018-09-18T16:25:37.395Z,100480.70
2018-09-18T16:28:06.271Z,100484.55
2018-09-18T16:30:34.884Z,100492.58
2018-09-18T16:33:03.947Z,100489.71
2018-09-18T16:35:32.490Z,100491.94
2018-09-18T16:38:01.137Z,100503.33
2018-09-18T16:40:29.787Z,100505.70
2018-09-18T16:42:58.861Z,100506.34
2018-09-18T16:45:27.453Z,100502.20
2018-09-18T16:47:55.986Z,100503.88
2018-09-18T16:50:24.504Z,100506.70
2018-09-18T16:52:53.039Z,100517.60
2018-09-18T16:55:21.673Z,100518.47
2018-09-18T16:57:50.326Z,100527.72
2018-09-18T17:00:21.254Z,100528.68
2018-09-18T17:02:49.851Z,100535.18
2018-09-18T17:05:19.021Z,100541.45
2018-09-18T17:07:47.597Z,100550.14
2018-09-18T17:10:16.170Z,100546.67
2018-09-18T17:12:44.700Z,100552.95
2018-09-18T17:15:13.291Z,100555.67
2018-09-18T17:17:42.544Z,100558.67
2018-09-18T17:20:11.091Z,100561.08
2018-09-18T17:22:39.652Z,100567.31
2018-09-18T17:25:08.590Z,100575.42
2018-09-18T17:27:37.534Z,100580.81
2018-09-18T17:30:06.327Z,100584.05
2018-09-18T17:32:35.707Z,100585.13
2018-09-18T17:35:04.769Z,100592.63
2018-09-18T17:37:34.447Z,100592.87
2018-09-18T17:40:03.258Z,100591.52
2018-09-18T17:42:31.823Z,100593.13
2018-09-18T17:45:01.274Z,100596.86
2018-09-18T17:47:29.882Z,100604.64
2018-09-18T17:49:58.717Z,100607.58
2018-09-18T17:52:27.205Z,100609.45
2018-09-18T17:54:55.788Z,100616.97
2018-09-18T17:57:24.279Z,100617.69
2018-09-18T17:59:52.846Z,100621.20
2018-09-18T18:02:22.042Z,100624.92
2018-09-18T18:04:50.521Z,100630.77
2018-09-18T18:07:19.081Z,100635.07
2018-09-18T18:09:47.650Z,100631.59
2018-09-18T18:12:16.816Z,100640.97
2018-09-18T18:14:45.314Z,100644.16
2018-09-18T18:17:13.831Z,100651.88
2018-09-18T18:19:42.333Z,100650.47
2018-09-18T18:22:10.988Z,100653.08
2018-09-18T18:24:39.499Z,100662.23
2018-09-18T18:27:08.098Z,100663.75
2018-09-18T18:29:37.662Z,100661.18
2018-09-18T18:32:06.767Z,100669.67
2018-09-18T18:34:35.419Z,100681.71
2018-09-18T18:37:03.979Z,100685.66
2018-09-18T18:39:32.524Z,100694.99
2018-09-18T18:42:01.054Z,100701.40
2018-09-18T18:44:31.256Z,100705.06
2018-09-18T18:46:59.755Z,100713.06
2018-09-18T18:49:32.430Z,100718.52
2018-09-18T18:52:00.966Z,100724.92
2018-09-18T18:54:29.561Z,100720.52
2018-09-18T18:56:58.154Z,100731.09
2018-09-18T18:59:27.423Z,100731.73
2018-09-18T19:01:55.975Z,100736.02
2018-09-18T19:04:24.497Z,100740.75
2018-09-18T19:06:53.415Z,100747.23
2018-09-18T19:09:21.979Z,100752.82
2018-09-18T19:11:51.586Z,100754.27
2018-09-18T19:14:20.224Z,100748.75
2018-09-18T19:16:48.854Z,100753.94
2018-09-18T19:19:17.587Z,100745.48
2018-09-18T19:21:46.171Z,100735.71
2018-09-18T19:24:14.820Z,100751.06
2018-09-18T19:26:43.347Z,100757.28
2018-09-18T19:29:11.909Z,100757.98
2018-09-18T19:31:41.185Z,100761.44
2018-09-18T19:34:09.699Z,100760.41
2018-09-18T19:36:38.229Z,100770.36
2018-09-18T19:39:09.284Z,100764.16
2018-09-18T19:41:37.912Z,100766.25
2018-09-18T19:44:06.641Z,100765.73
2018-09-18T19:46:35.248Z,100766.44
2018-09-18T19:49:03.915Z,100764.76
2018-09-18T19:51:32.808Z,100764.33
2018-09-18T19:54:01.319Z,100767.25
2018-09-18T19:56:31.328Z,100768.13
2018-09-18T19:58:59.943Z,100765.86
2018-09-18T20:01:28.520Z,100768.38
2018-09-18T20:03:57.249Z,100767.59
2018-09-18T20:06:25.860Z,100773.91
2018-09-18T20:08:55.399Z,100772.77
2018-09-18T20:11:23.989Z,100774.52
2018-09-18T20:13:53.247Z,100780.69
2018-09-18T20:16:21.788Z,100789.59
2018-09-18T20:18:50.330Z,100787.73
2018-09-18T20:21:18.908Z,100776.69
2018-09-18T20:23:47.439Z,100786.24
2018-09-18T20:26:15.934Z,100795.89
2018-09-18T20:28:44.587Z,100796.05
2018-09-18T20:31:13.193Z,100794.95
2018-09-18T20:33:42.462Z,100786.73
2018-09-18T20:36:11.158Z,100789.41
2018-09-18T20:38:39.649Z,100786.58
2018-09-18T20:41:08.256Z,100787.79
2018-09-18T20:43:37.362Z,100785.79
2018-09-18T20:46:05.919Z,100783.31
2018-09-18T20:48:34.503Z,100784.68
2018-09-18T20:51:03.970Z,100790.14
2018-09-18T20:53:32.495Z,100784.45
2018-09-18T20:56:01.946Z,100785.73
2018-09-18T20:58:30.451Z,100782.58
2018-09-18T21:00:59.321Z,100787.61
2018-09-18T21:03:27.939Z,100783.34
2018-09-18T21:05:56.510Z,100790.38
2018-09-18T21:08:25.081Z,100793.73
2018-09-18T21:10:53.724Z,100788.25
2018-09-18T21:13:22.270Z,100787.66
2018-09-18T21:15:50.808Z,100781.70
2018-09-18T21:18:19.356Z,100787.09
2018-09-18T21:20:48.307Z,100793.27
2018-09-18T21:23:16.918Z,100793.88
2018-09-18T21:26:17.520Z,100791.00
2018-09-18T21:28:46.044Z,100789.84
2018-09-18T21:31:14.606Z,100791.17
2018-09-18T21:33:43.471Z,100796.66
2018-09-18T21:36:12.085Z,100793.63
2018-09-18T21:38:41.259Z,100801.95
2018-09-18T21:41:09.838Z,100809.52
2018-09-18T21:43:38.739Z,100809.24
2018-09-18T21:46:08.137Z,100809.52
2018-09-18T21:48:38.094Z,100808.92
2018-09-18T21:51:07.246Z,100807.13
2018-09-18T21:53:36.284Z,100802.38
2018-09-18T21:56:04.823Z,100806.23
2018-09-18T21:58:33.497Z,100806.93
2018-09-18T22:01:04.507Z,100809.52
2018-09-18T22:03:33.519Z,100812.83
2018-09-18T22:06:02.633Z,100805.73
2018-09-18T22:08:31.233Z,100811.63
2018-09-18T22:10:59.749Z,100812.30
2018-09-18T22:13:28.270Z,100814.17
2018-09-18T22:15:56.825Z,100824.05
2018-09-18T22:18:25.429Z,100829.39
2018-09-18T22:20:53.964Z,100830.82
2018-09-18T22:23:22.665Z,100828.95
2018-09-18T22:25:51.206Z,100829.69
2018-09-18T22:28:19.739Z,100830.73
2018-09-18T22:30:48.271Z,100836.67
2018-09-18T22:33:17.894Z,100837.69
2018-09-18T22:35:46.465Z,100843.03
2018-09-18T22:38:15.579Z,100840.50
2018-09-18T22:40:45.051Z,100837.95
2018-09-18T22:43:13.710Z,100835.70
2018-09-18T22:45:42.663Z,100847.20
2018-09-18T22:48:11.162Z,100835.88
2018-09-18T22:50:39.668Z,100842.92
2018-09-18T22:53:08.227Z,100848.26
2018-09-18T22:55:36.754Z,100839.20
2018-09-18T22:58:05.374Z,100846.38
2018-09-18T23:00:33.920Z,100847.34
2018-09-18T23:03:02.606Z,100846.47
2018-09-18T23:05:31.099Z,100848.48
2018-09-18T23:07:59.650Z,100856.92
2018-09-18T23:10:28.137Z,100853.50
2018-09-18T23:12:57.218Z,100854.13
2018-09-18T23:15:25.765Z,100857.59
2018-09-18T23:17:54.285Z,100853.65
2018-09-18T23:20:22.809Z,100854.84
2018-09-18T23:22:51.386Z,100854.98
2018-09-18T23:25:19.893Z,100859.08
2018-09-18T23:27:49.101Z,100867.59
2018-09-18T23:30:17.706Z,100872.84
2018-09-18T23:32:46.187Z,100878.95
2018-09-18T23:35:14.864Z,100870.26
2018-09-18T23:37:43.395Z,100878.34
2018-09-18T23:40:12.018Z,100873.83
2018-09-18T23:42:40.518Z,100876.20
2018-09-18T23:45:09.083Z,100876.05
2018-09-18T23:47:37.604Z,100880.87
2018-09-18T23:50:06.282Z,100877.16
2018-09-18T23:52:34.852Z,100886.88
2018-09-18T23:55:03.375Z,100881.00
2018-09-18T23:57:32.653Z,100880.34
